createdAt,value
2023-01-15T00:00:56.728Z,98173.56
2023-01-15T00:03:23.297Z,98176.47
2023-01-15T00:05:49.810Z,98188.94
2023-01-15T00:08:17.792Z,98180.69
2023-01-15T00:10:44.282Z,98169.19
2023-01-15T00:13:10.905Z,98176.53
2023-01-15T00:15:37.471Z,98186.19
2023-01-15T00:18:04.605Z,98181.50
2023-01-15T00:20:31.312Z,98194.72
2023-01-15T00:22:58.004Z,98199.13
2023-01-15T00:25:25.833Z,98215.81
2023-01-15T00:27:52.303Z,98187.13
2023-01-15T00:30:19.297Z,98186.16
2023-01-15T00:32:45.798Z,98200.47
2023-01-15T00:35:13.998Z,98188.38
2023-01-15T00:37:40.600Z,98193.03
2023-01-15T00:40:08.255Z,98199.44
2023-01-15T00:42:36.217Z,98197.94
2023-01-15T00:45:02.766Z,98203.63
2023-01-15T00:47:29.604Z,98193.53
2023-01-15T00:49:56.059Z,98189.81
2023-01-15T00:52:22.601Z,98188.22
2023-01-15T00:54:49.462Z,98177.88
2023-01-15T00:57:15.917Z,98166.25
2023-01-15T00:59:43.882Z,98159.72
2023-01-15T01:02:10.416Z,98156.03
2023-01-15T01:04:37.104Z,98138.56
2023-01-15T01:07:04.112Z,98137.47
2023-01-15T01:09:30.681Z,98141.31
2023-01-15T01:11:57.421Z,98156.69
2023-01-15T01:14:23.892Z,98154.50
2023-01-15T01:16:51.917Z,98157.97
2023-01-15T01:19:22.045Z,98136.16
2023-01-15T01:21:56.718Z,98145.03
2023-01-15T01:24:24.363Z,98160.31
2023-01-15T01:26:54.114Z,98184.47
2023-01-15T01:29:22.691Z,98194.53
2023-01-15T01:31:49.401Z,98184.56
2023-01-15T01:34:17.266Z,98180.59
2023-01-15T01:36:45.048Z,98194.88
2023-01-15T01:39:15.023Z,98187.47
2023-01-15T01:41:46.490Z,98189.31
2023-01-15T01:44:53.011Z,98198.38
2023-01-15T01:47:22.951Z,98192.00
2023-01-15T01:49:54.016Z,98188.94
2023-01-15T01:52:25.157Z,98193.47
2023-01-15T01:54:52.336Z,98194.72
2023-01-15T01:57:22.983Z,98198.50
2023-01-15T01:59:57.347Z,98206.91
2023-01-15T02:02:24.115Z,98179.09
2023-01-15T02:04:52.443Z,98192.63
2023-01-15T02:07:19.137Z,98213.78
2023-01-15T02:09:45.795Z,98214.53
2023-01-15T02:12:19.706Z,98213.06
2023-01-15T02:14:54.038Z,98208.66
2023-01-15T02:17:25.889Z,98198.50
2023-01-15T02:20:05.812Z,98192.38
2023-01-15T02:22:42.485Z,98193.81
2023-01-15T02:25:19.503Z,98188.44
2023-01-15T02:27:53.576Z,98183.72
2023-01-15T02:30:28.504Z,98167.38
2023-01-15T02:32:59.632Z,98164.94
2023-01-15T02:35:31.820Z,98174.50
2023-01-15T02:38:01.279Z,98159.88
2023-01-15T02:40:28.832Z,98154.47
2023-01-15T02:42:59.026Z,98163.22
2023-01-15T02:45:29.231Z,98180.56
2023-01-15T02:48:00.654Z,98169.59
2023-01-15T02:50:32.277Z,98173.06
2023-01-15T02:53:02.851Z,98156.09
2023-01-15T02:55:35.082Z,98153.38
2023-01-15T02:58:07.644Z,98142.38
2023-01-15T03:00:37.043Z,98154.56
2023-01-15T03:03:10.090Z,98149.78
2023-01-15T03:05:40.415Z,98156.41
2023-01-15T03:08:08.297Z,98160.00
2023-01-15T03:10:42.359Z,98155.31
2023-01-15T03:13:15.584Z,98147.69
2023-01-15T03:15:51.138Z,98145.59
2023-01-15T03:18:21.444Z,98144.00
2023-01-15T03:20:52.037Z,98141.78
2023-01-15T03:23:22.536Z,98141.63
2023-01-15T03:25:49.761Z,98140.69
2023-01-15T03:28:24.098Z,98144.84
2023-01-15T03:30:51.349Z,98141.53
2023-01-15T03:33:18.806Z,98143.66
2023-01-15T03:35:49.435Z,98130.47
2023-01-15T03:38:19.587Z,98130.59
2023-01-15T03:40:52.835Z,98116.53
2023-01-15T03:43:29.855Z,98119.38
2023-01-15T03:46:02.900Z,98113.97
2023-01-15T03:48:35.885Z,98116.03
2023-01-15T03:51:09.977Z,98117.41
2023-01-15T03:53:41.967Z,98126.00
2023-01-15T03:56:14.542Z,98120.13
2023-01-15T03:58:45.902Z,98129.44
2023-01-15T04:01:16.138Z,98134.50
2023-01-15T04:03:45.130Z,98135.81
2023-01-15T04:06:11.920Z,98143.56
2023-01-15T04:08:40.698Z,98138.63
2023-01-15T04:11:07.310Z,98130.03
2023-01-15T04:13:34.103Z,98137.97
2023-01-15T04:16:02.057Z,98134.59
2023-01-15T04:18:28.981Z,98121.44
2023-01-15T04:20:55.587Z,98133.75
2023-01-15T04:23:22.640Z,98126.41
2023-01-15T04:25:49.900Z,98133.81
2023-01-15T04:28:16.400Z,98134.34
2023-01-15T04:30:43.031Z,98147.09
2023-01-15T04:33:11.061Z,98144.56
2023-01-15T04:35:38.327Z,98145.53
2023-01-15T04:38:04.862Z,98157.25
2023-01-15T04:40:31.482Z,98151.53
2023-01-15T04:42:57.975Z,98143.97
2023-01-15T04:45:24.488Z,98153.44
2023-01-15T04:47:50.970Z,98138.44
2023-01-15T04:50:19.098Z,98134.69
2023-01-15T04:52:45.565Z,98128.31
2023-01-15T04:55:12.138Z,98122.91
2023-01-15T04:57:38.634Z,98128.84
2023-01-15T05:00:06.251Z,98124.31
2023-01-15T05:02:32.775Z,98135.22
2023-01-15T05:04:59.293Z,98137.88
2023-01-15T05:07:27.423Z,98126.75
2023-01-15T05:09:54.091Z,98129.47
2023-01-15T05:12:20.544Z,98130.22
2023-01-15T05:14:47.156Z,98117.13
2023-01-15T05:17:13.663Z,98133.38
2023-01-15T05:19:40.806Z,98153.72
2023-01-15T05:22:07.263Z,98148.97
2023-01-15T05:24:35.298Z,98154.94
2023-01-15T05:27:02.047Z,98146.53
2023-01-15T05:29:28.910Z,98149.97
2023-01-15T05:31:55.536Z,98148.59
2023-01-15T05:34:22.012Z,98159.81
2023-01-15T05:36:48.721Z,98148.22
2023-01-15T05:39:15.568Z,98142.81
2023-01-15T05:41:43.393Z,98147.78
2023-01-15T05:44:11.561Z,98130.06
2023-01-15T05:46:40.465Z,98132.22
2023-01-15T05:49:09.333Z,98134.56
2023-01-15T05:51:36.851Z,98129.09
2023-01-15T05:54:04.713Z,98144.94
2023-01-15T05:56:31.563Z,98132.28
2023-01-15T05:58:59.578Z,98138.94
2023-01-15T06:01:26.096Z,98131.69
2023-01-15T06:03:52.679Z,98148.56
2023-01-15T06:06:19.309Z,98150.34
2023-01-15T06:08:45.952Z,98150.78
2023-01-15T06:11:12.785Z,98159.50
2023-01-15T06:13:40.225Z,98150.53
2023-01-15T06:16:08.607Z,98150.03
2023-01-15T06:18:35.147Z,98162.59
2023-01-15T06:21:03.639Z,98163.94
2023-01-15T06:23:30.191Z,98161.75
2023-01-15T06:26:00.155Z,98162.22
2023-01-15T06:28:26.682Z,98166.41
2023-01-15T06:30:53.433Z,98168.50
2023-01-15T06:33:21.445Z,98162.56
2023-01-15T06:35:47.905Z,98163.72
2023-01-15T06:38:14.413Z,98160.13
2023-01-15T06:40:40.945Z,98166.19
2023-01-15T06:43:09.615Z,98165.56
2023-01-15T06:45:38.475Z,98166.31
2023-01-15T06:48:05.343Z,98163.09
2023-01-15T06:50:33.163Z,98166.78
2023-01-15T06:52:59.642Z,98171.69
2023-01-15T06:55:26.200Z,98176.25
2023-01-15T06:57:52.734Z,98174.84
2023-01-15T07:00:19.651Z,98164.25
2023-01-15T07:02:46.122Z,98172.88
2023-01-15T07:05:12.850Z,98182.00
2023-01-15T07:07:40.673Z,98165.41
2023-01-15T07:10:08.205Z,98185.25
2023-01-15T07:12:34.990Z,98185.47
2023-01-15T07:15:01.502Z,98171.34
2023-01-15T07:17:28.017Z,98175.03
2023-01-15T07:19:54.644Z,98176.00
2023-01-15T07:22:21.303Z,98181.00
2023-01-15T07:24:49.265Z,98181.72
2023-01-15T07:27:15.734Z,98192.78
2023-01-15T07:29:42.274Z,98193.41
2023-01-15T07:32:09.768Z,98192.13
2023-01-15T07:34:36.268Z,98208.88
2023-01-15T07:37:02.946Z,98214.44
2023-01-15T07:39:29.584Z,98215.84
2023-01-15T07:41:57.507Z,98209.63
2023-01-15T07:44:24.173Z,98217.91
2023-01-15T07:46:50.816Z,98214.06
2023-01-15T07:49:17.289Z,98223.31
2023-01-15T07:51:43.765Z,98230.91
2023-01-15T07:54:10.338Z,98223.31
2023-01-15T07:56:37.109Z,98225.13
2023-01-15T07:59:04.989Z,98222.63
2023-01-15T08:01:31.821Z,98217.94
2023-01-15T08:03:58.535Z,98222.88
2023-01-15T08:06:25.098Z,98233.31
2023-01-15T08:08:51.623Z,98232.88
2023-01-15T08:11:18.075Z,98231.13
2023-01-15T08:13:44.622Z,98230.16
2023-01-15T08:16:25.944Z,98235.34
2023-01-15T08:18:52.965Z,98227.84
2023-01-15T08:21:19.514Z,98250.63
2023-01-15T08:23:46.442Z,98246.38
2023-01-15T08:26:13.549Z,98251.66
2023-01-15T08:28:40.403Z,98233.47
2023-01-15T08:31:39.759Z,98249.50
2023-01-15T08:34:07.748Z,98284.34
2023-01-15T08:36:34.551Z,98271.31
2023-01-15T08:39:03.671Z,98276.81
2023-01-15T08:41:30.373Z,98275.19
2023-01-15T08:43:56.962Z,98276.47
2023-01-15T08:46:26.029Z,98281.59
2023-01-15T08:48:52.610Z,98285.47
2023-01-15T08:51:20.630Z,98285.13
2023-01-15T08:53:47.212Z,98264.66
2023-01-15T08:56:15.301Z,98281.59
2023-01-15T08:58:42.545Z,98282.47
2023-01-15T09:01:10.815Z,98279.44
2023-01-15T09:03:38.308Z,98285.88
2023-01-15T09:06:05.425Z,98299.00
2023-01-15T09:08:34.561Z,98300.50
2023-01-15T09:11:03.742Z,98306.06
2023-01-15T09:13:33.716Z,98305.50
2023-01-15T09:16:01.035Z,98294.16
2023-01-15T09:18:27.568Z,98299.28
2023-01-15T09:20:54.387Z,98301.09
2023-01-15T09:23:21.022Z,98293.59
2023-01-15T09:25:59.220Z,98298.75
2023-01-15T09:28:25.972Z,98290.28
2023-01-15T09:30:52.592Z,98289.94
2023-01-15T09:33:19.063Z,98288.94
2023-01-15T09:35:48.872Z,98292.59
2023-01-15T09:38:20.035Z,98294.06
2023-01-15T09:40:50.188Z,98289.75
2023-01-15T09:43:45.015Z,98281.25
2023-01-15T09:46:20.889Z,98287.44
2023-01-15T09:48:55.995Z,98277.75
2023-01-15T09:51:30.093Z,98279.19
2023-01-15T09:54:16.820Z,98269.06
2023-01-15T09:56:44.511Z,98277.47
2023-01-15T09:59:23.759Z,98279.06
2023-01-15T10:01:51.592Z,98259.16
2023-01-15T10:04:32.249Z,98282.41
2023-01-15T10:07:06.521Z,98268.84
2023-01-15T10:09:38.213Z,98270.94
2023-01-15T10:12:13.404Z,98267.22
2023-01-15T10:14:47.161Z,98283.34
2023-01-15T10:17:26.003Z,98274.53
2023-01-15T10:19:53.047Z,98282.41
2023-01-15T10:22:30.688Z,98293.63
2023-01-15T10:24:58.188Z,98296.00
2023-01-15T10:27:27.568Z,98291.59
2023-01-15T10:30:01.594Z,98300.09
2023-01-15T10:32:39.866Z,98294.44
2023-01-15T10:35:22.242Z,98312.56
2023-01-15T10:37:54.199Z,98317.09
2023-01-15T10:41:05.107Z,98315.28
2023-01-15T10:43:44.714Z,98315.75
2023-01-15T10:46:14.307Z,98305.59
2023-01-15T10:48:45.546Z,98300.09
2023-01-15T10:51:16.826Z,98299.97
2023-01-15T10:53:47.549Z,98298.59
2023-01-15T10:56:22.874Z,98306.53
2023-01-15T10:58:57.149Z,98296.03
2023-01-15T11:01:27.415Z,98286.31
2023-01-15T11:03:54.361Z,98306.97
2023-01-15T11:06:23.686Z,98310.25
2023-01-15T11:09:10.921Z,98305.72
2023-01-15T11:11:41.408Z,98320.09
2023-01-15T11:14:11.965Z,98309.19
2023-01-15T11:16:44.110Z,98313.59
2023-01-15T11:19:23.957Z,98314.63
2023-01-15T11:21:52.656Z,98313.59
2023-01-15T11:24:19.469Z,98318.00
2023-01-15T11:26:48.393Z,98315.41
2023-01-15T11:29:20.801Z,98307.75
2023-01-15T11:31:48.629Z,98303.19
2023-01-15T11:34:21.624Z,98310.56
2023-01-15T11:36:48.511Z,98308.69
2023-01-15T11:39:25.943Z,98306.78
2023-01-15T11:41:58.591Z,98271.16
2023-01-15T11:44:25.122Z,98291.81
2023-01-15T11:46:55.076Z,98289.34
2023-01-15T11:49:21.952Z,98299.88
2023-01-15T11:51:49.169Z,98295.44
2023-01-15T11:54:16.191Z,98310.81
2023-01-15T11:56:45.295Z,98287.31
2023-01-15T11:59:14.755Z,98308.88
2023-01-15T12:01:49.816Z,98314.72
2023-01-15T12:04:34.440Z,98311.06
2023-01-15T12:07:02.170Z,98290.56
2023-01-15T12:09:47.922Z,98296.84
2023-01-15T12:12:25.554Z,98291.59
2023-01-15T12:15:16.197Z,98305.72
2023-01-15T12:18:15.649Z,98309.19
2023-01-15T12:20:56.815Z,98299.53
2023-01-15T12:23:48.016Z,98301.47
2023-01-15T12:26:23.822Z,98291.06
2023-01-15T12:29:00.442Z,98303.16
2023-01-15T12:31:33.526Z,98300.47
2023-01-15T12:34:07.516Z,98303.78
2023-01-15T12:39:19.897Z,98272.75
2023-01-15T12:41:53.777Z,98280.84
2023-01-15T12:44:31.799Z,98267.75
2023-01-15T12:46:58.480Z,98273.56
2023-01-15T12:49:34.604Z,98281.53
2023-01-15T12:52:09.411Z,98260.66
2023-01-15T12:54:46.679Z,98268.91
2023-01-15T12:57:18.001Z,98277.66
2023-01-15T13:00:01.193Z,98268.25
2023-01-15T13:02:38.829Z,98262.66
2023-01-15T13:05:22.905Z,98277.66
2023-01-15T13:07:58.509Z,98280.38
2023-01-15T13:10:27.804Z,98268.22
2023-01-15T13:12:59.628Z,98273.38
2023-01-15T13:15:34.282Z,98272.72
2023-01-15T13:18:09.485Z,98279.69
2023-01-15T13:20:44.898Z,98253.16
2023-01-15T13:23:27.593Z,98274.69
2023-01-15T13:26:06.293Z,98296.16
2023-01-15T13:28:48.577Z,98288.28
2023-01-15T13:31:35.767Z,98297.41
2023-01-15T13:34:11.956Z,98294.69
2023-01-15T13:36:45.630Z,98315.03
2023-01-15T13:39:18.594Z,98297.28
2023-01-15T13:41:49.590Z,98302.34
2023-01-15T13:44:19.891Z,98307.38
2023-01-15T13:46:47.714Z,98297.66
2023-01-15T13:49:19.844Z,98302.84
2023-01-15T13:51:48.745Z,98306.28
2023-01-15T13:54:19.493Z,98306.63
2023-01-15T13:56:46.065Z,98315.88
2023-01-15T13:59:38.097Z,98312.94
2023-01-15T14:02:21.188Z,98329.91
2023-01-15T14:04:47.702Z,98325.25
2023-01-15T14:07:18.655Z,98328.69
2023-01-15T14:09:46.623Z,98334.63
2023-01-15T14:12:23.904Z,98337.03
2023-01-15T14:15:16.684Z,98351.47
2023-01-15T14:18:05.393Z,98335.13
2023-01-15T14:21:15.354Z,98345.81
2023-01-15T14:24:25.600Z,98328.69
2023-01-15T14:27:01.443Z,98346.44
2023-01-15T14:30:00.232Z,98345.88
2023-01-15T14:32:44.680Z,98352.81
2023-01-15T14:35:14.270Z,98357.13
2023-01-15T14:37:49.376Z,98354.44
2023-01-15T14:41:28.096Z,98352.47
2023-01-15T14:44:07.615Z,98342.50
2023-01-15T14:46:36.067Z,98335.97
2023-01-15T14:49:02.616Z,98346.81
2023-01-15T14:51:32.413Z,98346.91
2023-01-15T14:54:02.224Z,98362.03
2023-01-15T14:56:31.485Z,98377.44
2023-01-15T14:59:08.142Z,98380.31
2023-01-15T15:01:43.185Z,98390.81
2023-01-15T15:04:21.088Z,98375.34
2023-01-15T15:06:51.919Z,98372.53
2023-01-15T15:09:29.290Z,98370.47
2023-01-15T15:12:03.261Z,98376.47
2023-01-15T15:14:33.107Z,98379.19
2023-01-15T15:17:02.512Z,98368.63
2023-01-15T15:19:34.627Z,98383.78
2023-01-15T15:22:06.741Z,98378.13
2023-01-15T15:24:35.243Z,98380.38
2023-01-15T15:27:14.204Z,98377.81
2023-01-15T15:29:42.252Z,98366.97
2023-01-15T15:32:15.771Z,98371.03
2023-01-15T15:34:45.584Z,98366.88
2023-01-15T15:37:16.033Z,98381.13
2023-01-15T15:39:51.381Z,98372.53
2023-01-15T15:42:23.080Z,98377.66
2023-01-15T15:44:54.404Z,98380.91
2023-01-15T15:47:22.713Z,98373.53
2023-01-15T15:49:49.292Z,98376.59
2023-01-15T15:52:22.200Z,98381.31
2023-01-15T15:54:57.952Z,98382.84
2023-01-15T15:57:25.968Z,98379.28
2023-01-15T15:59:55.067Z,98372.28
2023-01-15T16:02:24.912Z,98379.31
2023-01-15T16:04:53.336Z,98384.47
2023-01-15T16:07:23.805Z,98372.25
2023-01-15T16:09:58.106Z,98382.13
2023-01-15T16:12:28.805Z,98384.16
2023-01-15T16:14:58.752Z,98384.22
2023-01-15T16:17:25.984Z,98378.19
2023-01-15T16:19:53.239Z,98386.16
2023-01-15T16:22:20.267Z,98377.41
2023-01-15T16:24:54.514Z,98392.56
2023-01-15T16:27:21.283Z,98403.16
2023-01-15T16:29:52.959Z,98401.06
2023-01-15T16:32:26.841Z,98399.41
2023-01-15T16:35:02.830Z,98388.56
2023-01-15T16:37:30.095Z,98391.72
2023-01-15T16:39:58.254Z,98399.88
2023-01-15T16:42:27.855Z,98392.59
2023-01-15T16:44:56.843Z,98393.59
2023-01-15T16:47:27.025Z,98396.47
2023-01-15T16:49:54.049Z,98393.53
2023-01-15T16:52:48.755Z,98392.06
2023-01-15T16:55:37.361Z,98389.03
2023-01-15T16:58:35.159Z,98393.28
2023-01-15T17:01:36.391Z,98394.63
2023-01-15T17:04:16.385Z,98397.75
2023-01-15T17:06:54.972Z,98393.84
2023-01-15T17:09:22.024Z,98396.25
2023-01-15T17:11:50.851Z,98392.75
2023-01-15T17:14:23.943Z,98395.59
2023-01-15T17:17:24.062Z,98381.47
2023-01-15T17:19:59.411Z,98380.97
2023-01-15T17:22:29.590Z,98389.59
2023-01-15T17:24:58.018Z,98383.94
2023-01-15T17:27:25.475Z,98359.00
2023-01-15T17:30:00.991Z,98401.91
2023-01-15T17:32:31.572Z,98407.16
2023-01-15T17:35:01.258Z,98395.03
2023-01-15T17:37:31.281Z,98402.75
2023-01-15T17:39:57.840Z,98406.59
2023-01-15T17:42:41.685Z,98396.47
2023-01-15T17:45:15.889Z,98405.19
2023-01-15T17:47:44.304Z,98403.19
2023-01-15T17:50:47.486Z,98389.75
2023-01-15T17:53:14.027Z,98398.84
2023-01-15T17:55:40.492Z,98391.91
2023-01-15T17:58:08.721Z,98394.25
2023-01-15T18:00:39.358Z,98397.41
2023-01-15T18:03:19.235Z,98397.56
2023-01-15T18:05:47.713Z,98399.25
2023-01-15T18:08:14.380Z,98405.41
2023-01-15T18:10:41.209Z,98402.69
2023-01-15T18:13:16.553Z,98407.22
2023-01-15T18:15:43.197Z,98404.88
2023-01-15T18:18:09.718Z,98409.41
2023-01-15T18:20:37.639Z,98408.56
2023-01-15T18:23:04.772Z,98405.19
2023-01-15T18:25:31.289Z,98405.75
2023-01-15T18:27:58.061Z,98408.56
2023-01-15T18:30:25.152Z,98404.88
2023-01-15T18:32:51.690Z,98404.84
2023-01-15T18:35:18.459Z,98406.78
2023-01-15T18:37:46.329Z,98407.38
2023-01-15T18:40:13.503Z,98406.97
2023-01-15T18:42:43.136Z,98403.28
2023-01-15T18:45:10.883Z,98403.84
2023-01-15T18:47:37.427Z,98400.88
2023-01-15T18:50:04.135Z,98398.59
2023-01-15T18:52:30.646Z,98391.06
2023-01-15T18:54:58.545Z,98392.63
2023-01-15T18:57:25.299Z,98395.50
2023-01-15T18:59:51.870Z,98391.13
2023-01-15T19:02:20.701Z,98392.69
2023-01-15T19:04:48.497Z,98391.75
2023-01-15T19:07:15.408Z,98388.69
2023-01-15T19:09:42.122Z,98381.56
2023-01-15T19:12:10.063Z,98380.94
2023-01-15T19:14:36.631Z,98376.75
2023-01-15T19:17:03.180Z,98383.88
2023-01-15T19:19:30.001Z,98376.38
2023-01-15T19:21:57.201Z,98368.78
2023-01-15T19:24:23.831Z,98365.84
2023-01-15T19:26:50.367Z,98371.34
2023-01-15T19:29:18.288Z,98364.16
2023-01-15T19:31:44.808Z,98362.91
2023-01-15T19:34:32.645Z,98360.53
2023-01-15T19:36:58.416Z,98354.59
2023-01-15T19:39:25.635Z,98361.00
2023-01-15T19:41:52.158Z,98342.22
2023-01-15T19:44:20.328Z,98339.59
2023-01-15T19:46:46.879Z,98330.19
2023-01-15T19:49:18.251Z,98331.63
2023-01-15T19:51:48.394Z,98325.34
2023-01-15T19:54:15.078Z,98319.56
2023-01-15T19:56:41.619Z,98318.50
2023-01-15T19:59:08.458Z,98319.56
2023-01-15T20:01:36.862Z,98305.25
2023-01-15T20:04:03.626Z,98308.69
2023-01-15T20:06:30.131Z,98318.09
2023-01-15T20:08:56.780Z,98297.50
2023-01-15T20:11:23.332Z,98297.91
2023-01-15T20:13:51.387Z,98293.06
2023-01-15T20:16:19.642Z,98298.59
2023-01-15T20:18:50.086Z,98292.53
2023-01-15T20:21:16.751Z,98285.53
2023-01-15T20:23:44.539Z,98282.47
2023-01-15T20:26:13.277Z,98281.38
2023-01-15T20:28:40.987Z,98285.22
2023-01-15T20:31:13.207Z,98273.63
2023-01-15T20:33:39.737Z,98269.13
2023-01-15T20:36:08.805Z,98267.69
2023-01-15T20:38:35.442Z,98266.91
2023-01-15T20:41:06.511Z,98266.47
2023-01-15T20:43:33.084Z,98263.56
2023-01-15T20:46:07.668Z,98266.13
2023-01-15T20:48:34.246Z,98255.22
2023-01-15T20:51:12.033Z,98250.41
2023-01-15T20:53:38.813Z,98251.66
2023-01-15T20:56:11.989Z,98237.09
2023-01-15T20:58:38.647Z,98237.50
2023-01-15T21:01:07.069Z,98231.25
2023-01-15T21:03:33.737Z,98228.53
2023-01-15T21:06:01.342Z,98221.06
2023-01-15T21:08:30.965Z,98219.97
2023-01-15T21:10:57.469Z,98216.34
2023-01-15T21:13:24.059Z,98217.09
2023-01-15T21:15:54.964Z,98207.53
2023-01-15T21:18:21.973Z,98212.91
2023-01-15T21:20:48.533Z,98205.50
2023-01-15T21:23:15.133Z,98201.31
2023-01-15T21:25:43.118Z,98183.56
2023-01-15T21:28:10.821Z,98181.47
2023-01-15T21:30:40.267Z,98181.25
2023-01-15T21:33:08.887Z,98180.53
2023-01-15T21:35:39.039Z,98188.38
2023-01-15T21:38:05.877Z,98188.38
2023-01-15T21:40:33.128Z,98175.47
2023-01-15T21:43:01.862Z,98168.97
2023-01-15T21:45:28.736Z,98160.19
2023-01-15T21:47:55.588Z,98163.03
2023-01-15T21:50:22.368Z,98164.75
2023-01-15T21:52:49.015Z,98162.84
2023-01-15T21:55:15.679Z,98161.06
2023-01-15T21:57:42.378Z,98150.19
2023-01-15T22:00:12.044Z,98148.16
2023-01-15T22:02:38.659Z,98133.66
2023-01-15T22:05:06.044Z,98129.84
2023-01-15T22:07:32.618Z,98122.22
2023-01-15T22:09:59.340Z,98122.84
2023-01-15T22:12:26.015Z,98126.63
2023-01-15T22:14:52.625Z,98129.69
2023-01-15T22:17:20.951Z,98121.38
2023-01-15T22:19:47.563Z,98123.69
2023-01-15T22:22:14.173Z,98126.34
2023-01-15T22:24:40.912Z,98114.28
2023-01-15T22:27:08.930Z,98115.69
2023-01-15T22:29:38.963Z,98105.16
2023-01-15T22:32:06.949Z,98111.13
2023-01-15T22:34:35.332Z,98090.75
2023-01-15T22:37:02.544Z,98085.50
2023-01-15T22:39:29.444Z,98082.59
2023-01-15T22:41:56.374Z,98082.59
2023-01-15T22:44:23.058Z,98088.31
2023-01-15T22:46:49.772Z,98070.91
2023-01-15T22:49:16.765Z,98075.81
2023-01-15T22:51:45.267Z,98060.53
2023-01-15T22:54:12.245Z,98056.13
2023-01-15T22:56:40.634Z,98049.47
2023-01-15T22:59:07.813Z,98047.31
2023-01-15T23:01:35.116Z,98048.97
2023-01-15T23:04:01.923Z,98045.03
2023-01-15T23:06:28.838Z,98041.19
2023-01-15T23:08:57.905Z,98033.03
2023-01-15T23:11:27.583Z,98021.75
2023-01-15T23:13:54.323Z,98020.53
2023-01-15T23:16:21.825Z,98009.34
2023-01-15T23:18:48.807Z,98002.69
2023-01-15T23:21:18.004Z,98007.72
2023-01-15T23:23:45.139Z,98008.03
2023-01-15T23:26:16.184Z,97999.38
2023-01-15T23:28:46.205Z,97990.56
2023-01-15T23:31:14.292Z,97994.09
2023-01-15T23:33:41.149Z,97996.03
2023-01-15T23:36:08.564Z,97988.69
2023-01-15T23:38:35.376Z,97984.41
2023-01-15T23:41:06.959Z,97988.72
2023-01-15T23:43:36.511Z,97978.53
2023-01-15T23:46:06.903Z,97980.88
2023-01-15T23:48:33.809Z,97968.44
2023-01-15T23:51:04.518Z,97969.91
2023-01-15T23:53:31.393Z,97968.19
2023-01-15T23:55:59.430Z,97960.19
2023-01-15T23:58:26.770Z,97961.03
